首页
METAR-TAF:

METAR-TAF

机场 :

波特兰国际机场

波特蘭, 俄勒冈州, 美国

纬度: 45-35-27N, 经度: 122-36-01W, 海拔: 8米

当前天气观测

该预报发布于1小时和25分钟前的14:53 UTC
风速9节,风向东南
温度 7°C
湿度 81%
气压 1023 hPa
能見度: 16.1公里
多云层高于11000英尺
多云层高于20000英尺

METAR: KPDX 131453Z 13009KT 10SM BKN110 BKN200 07/04 A3021 RMK AO2 SLP230 T00670044 55005

时间: 08:18 (16:18 UTC)

预报

该预报发布于1小时和23分钟前的14:55 UTC
预报有效从13日的 15点(UTC)到 14日的 12点(UTC)
风速6节,风向东转东南
能見度: 10公里
散云层高于7000英尺
阴天层高于12000英尺

TAF: KPDX 131455Z 1315/1412 12006KT P6SM SCT070 OVC120

超过4000个机场的气象观测和天气预报(METAR&TAF报告)。

可查询的气象台以黄色和红色小点在地图上表示。

将鼠标移到小点上方,可查看气象台名称。

然后点击查看天气观测和预报。

如需切换地图:点击带黑十字的绿色按钮放大地图;点击带横线的绿色按钮缩小地图;或者点击绿色箭头查看邻近地区的地图。


METAR-TAF: